sensor_id;sensor_type;location;lat;lon;timestamp;P1;durP1;ratioP1;P2;durP2;ratioP2
11646;SDS011;5880;52.342;9.662;2023-06-04T00:00:48;2.43;;;1.70;;
11646;SDS011;5880;52.342;9.662;2023-06-04T00:03:13;2.20;;;1.60;;
11646;SDS011;5880;52.342;9.662;2023-06-04T00:05:39;2.53;;;1.73;;
11646;SDS011;5880;52.342;9.662;2023-06-04T00:08:05;1.83;;;1.50;;
11646;SDS011;5880;52.342;9.662;2023-06-04T00:10:30;1.97;;;1.60;;
11646;SDS011;5880;52.342;9.662;2023-06-04T00:12:58;2.07;;;1.80;;
11646;SDS011;5880;52.342;9.662;2023-06-04T00:15:24;1.90;;;1.50;;
11646;SDS011;5880;52.342;9.662;2023-06-04T00:17:51;2.20;;;1.50;;
11646;SDS011;5880;52.342;9.662;2023-06-04T00:20:17;1.83;;;1.43;;
11646;SDS011;5880;52.342;9.662;2023-06-04T00:22:43;2.20;;;1.90;;
11646;SDS011;5880;52.342;9.662;2023-06-04T00:25:09;1.97;;;1.70;;
11646;SDS011;5880;52.342;9.662;2023-06-04T00:27:35;5.20;;;1.80;;
11646;SDS011;5880;52.342;9.662;2023-06-04T00:30:02;2.17;;;1.57;;
11646;SDS011;5880;52.342;9.662;2023-06-04T00:32:29;1.93;;;1.60;;
11646;SDS011;5880;52.342;9.662;2023-06-04T00:34:55;3.47;;;1.80;;
11646;SDS011;5880;52.342;9.662;2023-06-04T00:37:23;2.03;;;1.70;;
11646;SDS011;5880;52.342;9.662;2023-06-04T00:39:53;2.60;;;1.50;;
11646;SDS011;5880;52.342;9.662;2023-06-04T00:42:19;3.13;;;1.30;;
11646;SDS011;5880;52.342;9.662;2023-06-04T00:44:44;1.83;;;1.40;;
11646;SDS011;5880;52.342;9.662;2023-06-04T00:47:16;1.93;;;1.50;;
11646;SDS011;5880;52.342;9.662;2023-06-04T00:49:45;2.13;;;1.63;;
11646;SDS011;5880;52.342;9.662;2023-06-04T00:52:12;2.17;;;1.50;;
11646;SDS011;5880;52.342;9.662;2023-06-04T00:54:40;1.50;;;1.40;;
11646;SDS011;5880;52.342;9.662;2023-06-04T00:57:07;1.90;;;1.60;;
11646;SDS011;5880;52.342;9.662;2023-06-04T00:59:34;1.50;;;1.37;;
11646;SDS011;5880;52.342;9.662;2023-06-04T01:02:09;1.63;;;1.50;;
11646;SDS011;5880;52.342;9.662;2023-06-04T01:07:32;2.10;;;1.53;;
11646;SDS011;5880;52.342;9.662;2023-06-04T01:10:01;2.07;;;1.40;;
11646;SDS011;5880;52.342;9.662;2023-06-04T01:12:28;2.07;;;1.87;;
11646;SDS011;5880;52.342;9.662;2023-06-04T01:14:53;2.00;;;1.50;;
11646;SDS011;5880;52.342;9.662;2023-06-04T01:17:26;2.07;;;1.50;;
11646;SDS011;5880;52.342;9.662;2023-06-04T01:23:24;2.43;;;1.50;;
11646;SDS011;5880;52.342;9.662;2023-06-04T01:25:53;2.17;;;1.40;;
11646;SDS011;5880;52.342;9.662;2023-06-04T01:28:22;1.50;;;1.40;;
11646;SDS011;5880;52.342;9.662;2023-06-04T01:30:48;1.70;;;1.50;;
11646;SDS011;5880;52.342;9.662;2023-06-04T01:33:17;1.50;;;1.40;;
11646;SDS011;5880;52.342;9.662;2023-06-04T01:35:45;1.73;;;1.40;;
11646;SDS011;5880;52.342;9.662;2023-06-04T01:38:11;1.67;;;1.43;;
11646;SDS011;5880;52.342;9.662;2023-06-04T01:40:37;2.23;;;1.60;;
11646;SDS011;5880;52.342;9.662;2023-06-04T01:43:02;1.80;;;1.63;;
11646;SDS011;5880;52.342;9.662;2023-06-04T01:45:29;3.80;;;1.53;;
11646;SDS011;5880;52.342;9.662;2023-06-04T01:47:55;1.63;;;1.40;;
11646;SDS011;5880;52.342;9.662;2023-06-04T01:50:21;2.80;;;1.70;;
11646;SDS011;5880;52.342;9.662;2023-06-04T01:52:48;1.77;;;1.63;;
11646;SDS011;5880;52.342;9.662;2023-06-04T01:55:15;1.53;;;1.40;;
11646;SDS011;5880;52.342;9.662;2023-06-04T01:57:42;2.27;;;1.30;;
11646;SDS011;5880;52.342;9.662;2023-06-04T02:00:10;2.37;;;1.43;;
11646;SDS011;5880;52.342;9.662;2023-06-04T02:02:37;1.67;;;1.40;;
11646;SDS011;5880;52.342;9.662;2023-06-04T02:05:03;1.50;;;1.40;;
11646;SDS011;5880;52.342;9.662;2023-06-04T02:07:33;1.60;;;1.40;;
11646;SDS011;5880;52.342;9.662;2023-06-04T02:10:03;1.80;;;1.40;;
11646;SDS011;5880;52.342;9.662;2023-06-04T02:12:37;1.50;;;1.40;;
11646;SDS011;5880;52.342;9.662;2023-06-04T02:15:05;1.63;;;1.47;;
11646;SDS011;5880;52.342;9.662;2023-06-04T02:17:32;1.70;;;1.60;;
11646;SDS011;5880;52.342;9.662;2023-06-04T02:20:02;1.60;;;1.50;;
11646;SDS011;5880;52.342;9.662;2023-06-04T02:22:28;1.40;;;1.30;;
11646;SDS011;5880;52.342;9.662;2023-06-04T02:24:54;1.50;;;1.40;;
11646;SDS011;5880;52.342;9.662;2023-06-04T02:27:20;2.67;;;1.60;;
11646;SDS011;5880;52.342;9.662;2023-06-04T02:29:45;1.50;;;1.23;;
11646;SDS011;5880;52.342;9.662;2023-06-04T02:32:11;1.87;;;1.47;;
11646;SDS011;5880;52.342;9.662;2023-06-04T02:34:37;1.83;;;1.60;;
11646;SDS011;5880;52.342;9.662;2023-06-04T02:37:02;2.33;;;1.50;;
11646;SDS011;5880;52.342;9.662;2023-06-04T02:39:29;1.77;;;1.50;;
11646;SDS011;5880;52.342;9.662;2023-06-04T02:41:55;1.87;;;1.60;;
11646;SDS011;5880;52.342;9.662;2023-06-04T02:44:21;3.03;;;1.70;;
11646;SDS011;5880;52.342;9.662;2023-06-04T02:46:47;1.40;;;1.30;;
11646;SDS011;5880;52.342;9.662;2023-06-04T02:49:12;1.63;;;1.47;;
11646;SDS011;5880;52.342;9.662;2023-06-04T02:51:41;2.23;;;1.93;;
11646;SDS011;5880;52.342;9.662;2023-06-04T02:54:10;1.40;;;1.30;;
11646;SDS011;5880;52.342;9.662;2023-06-04T02:56:37;1.50;;;1.40;;
11646;SDS011;5880;52.342;9.662;2023-06-04T02:59:03;2.03;;;1.60;;
11646;SDS011;5880;52.342;9.662;2023-06-04T03:01:30;2.10;;;1.50;;
11646;SDS011;5880;52.342;9.662;2023-06-04T03:03:55;1.53;;;1.43;;
11646;SDS011;5880;52.342;9.662;2023-06-04T03:06:26;1.40;;;1.30;;
11646;SDS011;5880;52.342;9.662;2023-06-04T03:08:51;2.20;;;1.67;;
11646;SDS011;5880;52.342;9.662;2023-06-04T03:11:18;1.50;;;1.40;;
11646;SDS011;5880;52.342;9.662;2023-06-04T03:13:47;1.43;;;1.20;;
11646;SDS011;5880;52.342;9.662;2023-06-04T03:16:14;2.03;;;1.47;;
11646;SDS011;5880;52.342;9.662;2023-06-04T03:18:40;2.87;;;1.40;;
11646;SDS011;5880;52.342;9.662;2023-06-04T03:21:07;2.80;;;1.57;;
11646;SDS011;5880;52.342;9.662;2023-06-04T03:23:34;1.30;;;1.20;;
11646;SDS011;5880;52.342;9.662;2023-06-04T03:26:01;1.60;;;1.40;;
11646;SDS011;5880;52.342;9.662;2023-06-04T03:28:27;1.50;;;1.40;;
11646;SDS011;5880;52.342;9.662;2023-06-04T03:30:54;1.90;;;1.60;;
11646;SDS011;5880;52.342;9.662;2023-06-04T03:33:20;2.17;;;1.40;;
11646;SDS011;5880;52.342;9.662;2023-06-04T03:35:45;2.40;;;1.30;;
11646;SDS011;5880;52.342;9.662;2023-06-04T03:38:13;2.00;;;1.53;;
11646;SDS011;5880;52.342;9.662;2023-06-04T03:40:40;2.27;;;1.40;;
11646;SDS011;5880;52.342;9.662;2023-06-04T03:43:06;3.50;;;1.43;;
11646;SDS011;5880;52.342;9.662;2023-06-04T03:45:31;1.87;;;1.40;;
11646;SDS011;5880;52.342;9.662;2023-06-04T03:47:57;1.87;;;1.67;;
11646;SDS011;5880;52.342;9.662;2023-06-04T03:50:23;1.63;;;1.40;;
11646;SDS011;5880;52.342;9.662;2023-06-04T03:52:49;1.97;;;1.33;;
11646;SDS011;5880;52.342;9.662;2023-06-04T03:55:15;1.63;;;1.53;;
11646;SDS011;5880;52.342;9.662;2023-06-04T03:57:40;1.30;;;1.20;;
11646;SDS011;5880;52.342;9.662;2023-06-04T04:00:07;2.23;;;1.70;;
11646;SDS011;5880;52.342;9.662;2023-06-04T04:02:36;1.40;;;1.30;;
11646;SDS011;5880;52.342;9.662;2023-06-04T04:05:03;1.90;;;1.50;;
11646;SDS011;5880;52.342;9.662;2023-06-04T04:07:29;1.87;;;1.50;;
11646;SDS011;5880;52.342;9.662;2023-06-04T04:09:55;1.73;;;1.30;;
11646;SDS011;5880;52.342;9.662;2023-06-04T04:12:21;1.40;;;1.30;;
11646;SDS011;5880;52.342;9.662;2023-06-04T04:14:46;1.50;;;1.40;;
11646;SDS011;5880;52.342;9.662;2023-06-04T04:17:13;2.57;;;1.50;;
11646;SDS011;5880;52.342;9.662;2023-06-04T04:19:42;1.80;;;1.40;;
11646;SDS011;5880;52.342;9.662;2023-06-04T04:22:09;1.73;;;1.43;;
11646;SDS011;5880;52.342;9.662;2023-06-04T04:24:36;1.50;;;1.40;;
11646;SDS011;5880;52.342;9.662;2023-06-04T04:27:02;2.53;;;1.30;;
11646;SDS011;5880;52.342;9.662;2023-06-04T04:29:29;1.70;;;1.30;;
11646;SDS011;5880;52.342;9.662;2023-06-04T04:31:59;3.17;;;1.40;;
11646;SDS011;5880;52.342;9.662;2023-06-04T04:34:34;1.40;;;1.30;;
11646;SDS011;5880;52.342;9.662;2023-06-04T04:37:02;4.20;;;1.40;;
11646;SDS011;5880;52.342;9.662;2023-06-04T04:39:28;1.60;;;1.40;;
11646;SDS011;5880;52.342;9.662;2023-06-04T04:41:54;2.50;;;1.20;;
11646;SDS011;5880;52.342;9.662;2023-06-04T04:44:20;1.97;;;1.40;;
11646;SDS011;5880;52.342;9.662;2023-06-04T04:46:47;1.73;;;1.37;;
11646;SDS011;5880;52.342;9.662;2023-06-04T04:49:13;1.90;;;1.53;;
11646;SDS011;5880;52.342;9.662;2023-06-04T04:51:39;1.40;;;1.30;;
11646;SDS011;5880;52.342;9.662;2023-06-04T04:54:05;4.60;;;1.60;;
11646;SDS011;5880;52.342;9.662;2023-06-04T04:56:32;1.87;;;1.23;;
11646;SDS011;5880;52.342;9.662;2023-06-04T04:59:02;3.07;;;1.50;;
11646;SDS011;5880;52.342;9.662;2023-06-04T05:01:27;2.67;;;1.50;;
11646;SDS011;5880;52.342;9.662;2023-06-04T05:03:53;8.00;;;1.70;;
11646;SDS011;5880;52.342;9.662;2023-06-04T05:06:19;1.47;;;1.30;;
11646;SDS011;5880;52.342;9.662;2023-06-04T05:08:45;1.50;;;1.40;;
11646;SDS011;5880;52.342;9.662;2023-06-04T05:11:10;1.10;;;1.00;;
11646;SDS011;5880;52.342;9.662;2023-06-04T05:13:36;1.63;;;1.30;;
11646;SDS011;5880;52.342;9.662;2023-06-04T05:16:02;1.30;;;1.20;;
11646;SDS011;5880;52.342;9.662;2023-06-04T05:18:31;1.17;;;1.07;;
11646;SDS011;5880;52.342;9.662;2023-06-04T05:21:05;1.20;;;1.10;;
11646;SDS011;5880;52.342;9.662;2023-06-04T05:23:32;1.50;;;1.30;;
11646;SDS011;5880;52.342;9.662;2023-06-04T05:25:59;1.53;;;1.37;;
11646;SDS011;5880;52.342;9.662;2023-06-04T05:28:26;1.20;;;1.10;;
11646;SDS011;5880;52.342;9.662;2023-06-04T05:30:52;1.33;;;1.23;;
11646;SDS011;5880;52.342;9.662;2023-06-04T05:33:27;1.93;;;1.30;;
11646;SDS011;5880;52.342;9.662;2023-06-04T05:35:55;2.50;;;1.43;;
11646;SDS011;5880;52.342;9.662;2023-06-04T05:38:23;1.50;;;1.40;;
11646;SDS011;5880;52.342;9.662;2023-06-04T05:40:51;1.40;;;1.30;;
11646;SDS011;5880;52.342;9.662;2023-06-04T05:43:18;2.20;;;1.37;;
11646;SDS011;5880;52.342;9.662;2023-06-04T05:45:44;1.50;;;1.37;;
11646;SDS011;5880;52.342;9.662;2023-06-04T05:48:10;1.30;;;1.20;;
11646;SDS011;5880;52.342;9.662;2023-06-04T05:50:35;1.30;;;1.20;;
11646;SDS011;5880;52.342;9.662;2023-06-04T05:53:01;1.20;;;1.02;;
11646;SDS011;5880;52.342;9.662;2023-06-04T05:55:27;1.30;;;1.20;;
11646;SDS011;5880;52.342;9.662;2023-06-04T05:57:54;1.55;;;1.20;;
11646;SDS011;5880;52.342;9.662;2023-06-04T06:00:20;1.35;;;1.10;;
11646;SDS011;5880;52.342;9.662;2023-06-04T06:02:48;1.40;;;1.30;;
11646;SDS011;5880;52.342;9.662;2023-06-04T06:05:15;1.27;;;1.13;;
11646;SDS011;5880;52.342;9.662;2023-06-04T06:07:43;1.55;;;1.33;;
11646;SDS011;5880;52.342;9.662;2023-06-04T06:10:09;1.70;;;1.25;;
11646;SDS011;5880;52.342;9.662;2023-06-04T06:12:35;1.25;;;1.15;;
11646;SDS011;5880;52.342;9.662;2023-06-04T06:15:01;1.25;;;1.15;;
11646;SDS011;5880;52.342;9.662;2023-06-04T06:17:27;1.20;;;1.10;;
11646;SDS011;5880;52.342;9.662;2023-06-04T06:19:53;1.75;;;1.30;;
11646;SDS011;5880;52.342;9.662;2023-06-04T06:22:20;1.33;;;1.23;;
11646;SDS011;5880;52.342;9.662;2023-06-04T06:24:46;1.88;;;1.33;;
11646;SDS011;5880;52.342;9.662;2023-06-04T06:27:13;1.38;;;1.27;;
11646;SDS011;5880;52.342;9.662;2023-06-04T06:29:40;1.95;;;1.48;;
11646;SDS011;5880;52.342;9.662;2023-06-04T06:32:07;1.77;;;1.42;;
11646;SDS011;5880;52.342;9.662;2023-06-04T06:34:33;1.40;;;1.30;;
11646;SDS011;5880;52.342;9.662;2023-06-04T06:36:59;2.08;;;1.20;;
11646;SDS011;5880;52.342;9.662;2023-06-04T06:39:25;1.50;;;1.40;;
11646;SDS011;5880;52.342;9.662;2023-06-04T06:41:50;1.38;;;1.27;;
11646;SDS011;5880;52.342;9.662;2023-06-04T06:44:16;3.00;;;1.50;;
11646;SDS011;5880;52.342;9.662;2023-06-04T06:46:42;1.38;;;1.10;;
11646;SDS011;5880;52.342;9.662;2023-06-04T06:49:08;1.38;;;1.27;;
11646;SDS011;5880;52.342;9.662;2023-06-04T06:51:33;1.85;;;1.50;;
11646;SDS011;5880;52.342;9.662;2023-06-04T06:53:59;1.40;;;1.30;;
11646;SDS011;5880;52.342;9.662;2023-06-04T06:56:25;1.30;;;1.20;;
11646;SDS011;5880;52.342;9.662;2023-06-04T06:58:51;1.75;;;1.63;;
11646;SDS011;5880;52.342;9.662;2023-06-04T07:01:16;1.67;;;1.40;;
11646;SDS011;5880;52.342;9.662;2023-06-04T07:03:42;2.05;;;1.40;;
11646;SDS011;5880;52.342;9.662;2023-06-04T07:06:08;1.33;;;1.23;;
11646;SDS011;5880;52.342;9.662;2023-06-04T07:08:34;2.67;;;1.50;;
11646;SDS011;5880;52.342;9.662;2023-06-04T07:11:00;1.35;;;1.20;;
11646;SDS011;5880;52.342;9.662;2023-06-04T07:13:28;2.97;;;1.40;;
11646;SDS011;5880;52.342;9.662;2023-06-04T07:15:56;1.90;;;1.38;;
11646;SDS011;5880;52.342;9.662;2023-06-04T07:18:23;1.33;;;1.23;;
11646;SDS011;5880;52.342;9.662;2023-06-04T07:20:49;1.75;;;1.45;;
11646;SDS011;5880;52.342;9.662;2023-06-04T07:23:17;1.50;;;1.25;;
11646;SDS011;5880;52.342;9.662;2023-06-04T07:25:43;1.40;;;1.30;;
11646;SDS011;5880;52.342;9.662;2023-06-04T07:28:09;1.45;;;1.35;;
11646;SDS011;5880;52.342;9.662;2023-06-04T07:30:34;2.58;;;1.40;;
11646;SDS011;5880;52.342;9.662;2023-06-04T07:33:01;2.22;;;1.60;;
11646;SDS011;5880;52.342;9.662;2023-06-04T07:35:27;1.60;;;1.27;;
11646;SDS011;5880;52.342;9.662;2023-06-04T07:37:53;1.48;;;1.30;;
11646;SDS011;5880;52.342;9.662;2023-06-04T07:40:18;1.38;;;1.27;;
11646;SDS011;5880;52.342;9.662;2023-06-04T07:42:45;1.70;;;1.60;;
11646;SDS011;5880;52.342;9.662;2023-06-04T07:45:14;1.38;;;1.27;;
11646;SDS011;5880;52.342;9.662;2023-06-04T07:47:40;1.70;;;1.40;;
11646;SDS011;5880;52.342;9.662;2023-06-04T07:50:07;1.63;;;1.30;;
11646;SDS011;5880;52.342;9.662;2023-06-04T07:52:33;1.60;;;1.40;;
11646;SDS011;5880;52.342;9.662;2023-06-04T07:54:59;1.30;;;1.20;;
11646;SDS011;5880;52.342;9.662;2023-06-04T07:57:25;1.77;;;1.60;;
11646;SDS011;5880;52.342;9.662;2023-06-04T07:59:51;1.85;;;1.30;;
11646;SDS011;5880;52.342;9.662;2023-06-04T08:02:17;1.40;;;1.20;;
11646;SDS011;5880;52.342;9.662;2023-06-04T08:04:44;1.30;;;1.20;;
11646;SDS011;5880;52.342;9.662;2023-06-04T08:07:11;1.83;;;1.35;;
11646;SDS011;5880;52.342;9.662;2023-06-04T08:09:37;1.30;;;1.20;;
11646;SDS011;5880;52.342;9.662;2023-06-04T08:12:02;1.40;;;1.30;;
11646;SDS011;5880;52.342;9.662;2023-06-04T08:14:28;1.50;;;1.20;;
11646;SDS011;5880;52.342;9.662;2023-06-04T08:16:54;0.98;;;0.98;;
11646;SDS011;5880;52.342;9.662;2023-06-04T08:19:20;1.33;;;1.20;;
11646;SDS011;5880;52.342;9.662;2023-06-04T08:21:45;1.20;;;1.10;;
11646;SDS011;5880;52.342;9.662;2023-06-04T08:24:12;1.92;;;1.30;;
11646;SDS011;5880;52.342;9.662;2023-06-04T08:26:38;1.20;;;1.10;;
11646;SDS011;5880;52.342;9.662;2023-06-04T08:29:04;1.25;;;1.02;;
11646;SDS011;5880;52.342;9.662;2023-06-04T08:31:30;2.03;;;1.02;;
11646;SDS011;5880;52.342;9.662;2023-06-04T08:33:57;1.67;;;1.20;;
11646;SDS011;5880;52.342;9.662;2023-06-04T08:36:22;1.20;;;1.10;;
11646;SDS011;5880;52.342;9.662;2023-06-04T08:38:48;1.27;;;1.10;;
11646;SDS011;5880;52.342;9.662;2023-06-04T08:43:58;2.20;;;1.00;;
11646;SDS011;5880;52.342;9.662;2023-06-04T08:46:26;1.13;;;1.00;;
11646;SDS011;5880;52.342;9.662;2023-06-04T08:48:54;1.20;;;0.93;;
11646;SDS011;5880;52.342;9.662;2023-06-04T08:51:26;1.75;;;1.00;;
11646;SDS011;5880;52.342;9.662;2023-06-04T08:53:53;3.78;;;1.23;;
11646;SDS011;5880;52.342;9.662;2023-06-04T08:56:22;1.48;;;0.98;;
11646;SDS011;5880;52.342;9.662;2023-06-04T08:58:48;1.92;;;1.00;;
11646;SDS011;5880;52.342;9.662;2023-06-04T09:01:14;1.13;;;1.02;;
11646;SDS011;5880;52.342;9.662;2023-06-04T09:03:41;1.88;;;1.00;;
11646;SDS011;5880;52.342;9.662;2023-06-04T09:06:07;1.02;;;0.93;;
11646;SDS011;5880;52.342;9.662;2023-06-04T09:08:34;2.53;;;1.08;;
11646;SDS011;5880;52.342;9.662;2023-06-04T09:11:08;1.20;;;1.00;;
11646;SDS011;5880;52.342;9.662;2023-06-04T09:13:38;1.27;;;1.00;;
11646;SDS011;5880;52.342;9.662;2023-06-04T09:16:08;2.03;;;1.05;;
11646;SDS011;5880;52.342;9.662;2023-06-04T09:18:33;1.35;;;1.10;;
11646;SDS011;5880;52.342;9.662;2023-06-04T09:21:03;0.93;;;0.93;;
11646;SDS011;5880;52.342;9.662;2023-06-04T09:26:08;1.13;;;1.02;;
11646;SDS011;5880;52.342;9.662;2023-06-04T09:28:36;2.80;;;1.00;;
11646;SDS011;5880;52.342;9.662;2023-06-04T09:31:07;2.22;;;1.15;;
11646;SDS011;5880;52.342;9.662;2023-06-04T09:33:45;1.73;;;1.10;;
11646;SDS011;5880;52.342;9.662;2023-06-04T09:36:13;1.33;;;1.20;;
11646;SDS011;5880;52.342;9.662;2023-06-04T09:38:38;1.05;;;0.90;;
11646;SDS011;5880;52.342;9.662;2023-06-04T09:41:16;1.33;;;0.93;;
11646;SDS011;5880;52.342;9.662;2023-06-04T09:43:46;1.13;;;0.93;;
11646;SDS011;5880;52.342;9.662;2023-06-04T09:46:13;1.15;;;1.05;;
11646;SDS011;5880;52.342;9.662;2023-06-04T09:48:41;1.63;;;0.82;;
11646;SDS011;5880;52.342;9.662;2023-06-04T09:51:12;0.98;;;0.90;;
11646;SDS011;5880;52.342;9.662;2023-06-04T09:53:40;1.20;;;1.10;;
11646;SDS011;5880;52.342;9.662;2023-06-04T09:56:06;1.10;;;1.00;;
11646;SDS011;5880;52.342;9.662;2023-06-04T09:58:34;1.75;;;1.00;;
11646;SDS011;5880;52.342;9.662;2023-06-04T10:01:01;1.83;;;1.10;;
11646;SDS011;5880;52.342;9.662;2023-06-04T10:03:31;1.10;;;1.00;;
11646;SDS011;5880;52.342;9.662;2023-06-04T10:06:02;0.98;;;0.80;;
11646;SDS011;5880;52.342;9.662;2023-06-04T10:08:30;1.88;;;1.10;;
11646;SDS011;5880;52.342;9.662;2023-06-04T10:11:00;1.05;;;0.90;;
11646;SDS011;5880;52.342;9.662;2023-06-04T10:13:34;1.50;;;1.05;;
11646;SDS011;5880;52.342;9.662;2023-06-04T10:16:06;1.20;;;1.10;;
11646;SDS011;5880;52.342;9.662;2023-06-04T10:18:32;1.10;;;1.00;;
11646;SDS011;5880;52.342;9.662;2023-06-04T10:20:59;1.15;;;1.05;;
11646;SDS011;5880;52.342;9.662;2023-06-04T10:23:26;0.77;;;0.77;;
11646;SDS011;5880;52.342;9.662;2023-06-04T10:25:54;0.95;;;0.90;;
11646;SDS011;5880;52.342;9.662;2023-06-04T10:28:21;1.02;;;0.90;;
11646;SDS011;5880;52.342;9.662;2023-06-04T10:30:48;0.82;;;0.80;;
11646;SDS011;5880;52.342;9.662;2023-06-04T10:33:16;2.08;;;1.10;;
11646;SDS011;5880;52.342;9.662;2023-06-04T10:35:49;1.02;;;0.93;;
11646;SDS011;5880;52.342;9.662;2023-06-04T10:38:20;1.50;;;1.20;;
11646;SDS011;5880;52.342;9.662;2023-06-04T10:40:47;1.02;;;0.93;;
11646;SDS011;5880;52.342;9.662;2023-06-04T10:43:13;1.80;;;1.10;;
11646;SDS011;5880;52.342;9.662;2023-06-04T10:45:43;0.98;;;0.90;;
11646;SDS011;5880;52.342;9.662;2023-06-04T10:48:11;1.08;;;0.88;;
11646;SDS011;5880;52.342;9.662;2023-06-04T10:50:48;1.13;;;0.85;;
11646;SDS011;5880;52.342;9.662;2023-06-04T10:53:16;0.90;;;0.90;;
11646;SDS011;5880;52.342;9.662;2023-06-04T10:55:44;1.25;;;0.93;;
11646;SDS011;5880;52.342;9.662;2023-06-04T10:58:12;0.82;;;0.82;;
11646;SDS011;5880;52.342;9.662;2023-06-04T11:00:38;1.42;;;1.08;;
11646;SDS011;5880;52.342;9.662;2023-06-04T11:03:11;1.10;;;1.00;;
11646;SDS011;5880;52.342;9.662;2023-06-04T11:05:41;0.90;;;0.90;;
11646;SDS011;5880;52.342;9.662;2023-06-04T11:08:09;0.90;;;0.90;;
11646;SDS011;5880;52.342;9.662;2023-06-04T11:10:39;0.90;;;0.90;;
11646;SDS011;5880;52.342;9.662;2023-06-04T11:13:07;0.80;;;0.80;;
11646;SDS011;5880;52.342;9.662;2023-06-04T11:18:16;1.38;;;1.10;;
11646;SDS011;5880;52.342;9.662;2023-06-04T11:20:49;1.30;;;1.10;;
11646;SDS011;5880;52.342;9.662;2023-06-04T11:23:24;1.10;;;1.00;;
11646;SDS011;5880;52.342;9.662;2023-06-04T11:25:51;1.67;;;1.17;;
11646;SDS011;5880;52.342;9.662;2023-06-04T11:28:18;1.33;;;0.95;;
11646;SDS011;5880;52.342;9.662;2023-06-04T11:30:58;0.88;;;0.80;;
11646;SDS011;5880;52.342;9.662;2023-06-04T11:33:30;1.20;;;0.90;;
11646;SDS011;5880;52.342;9.662;2023-06-04T11:36:23;2.17;;;1.00;;
11646;SDS011;5880;52.342;9.662;2023-06-04T11:38:54;0.85;;;0.85;;
11646;SDS011;5880;52.342;9.662;2023-06-04T11:41:24;0.82;;;0.80;;
11646;SDS011;5880;52.342;9.662;2023-06-04T11:43:55;0.70;;;0.70;;
11646;SDS011;5880;52.342;9.662;2023-06-04T11:46:22;0.90;;;0.90;;
11646;SDS011;5880;52.342;9.662;2023-06-04T11:48:50;1.30;;;1.20;;
11646;SDS011;5880;52.342;9.662;2023-06-04T11:51:17;0.80;;;0.80;;
11646;SDS011;5880;52.342;9.662;2023-06-04T11:53:47;1.25;;;1.05;;
11646;SDS011;5880;52.342;9.662;2023-06-04T11:56:14;0.85;;;0.85;;
11646;SDS011;5880;52.342;9.662;2023-06-04T11:58:41;1.00;;;0.90;;
11646;SDS011;5880;52.342;9.662;2023-06-04T12:01:07;1.52;;;1.08;;
11646;SDS011;5880;52.342;9.662;2023-06-04T12:03:37;0.80;;;0.80;;
11646;SDS011;5880;52.342;9.662;2023-06-04T12:06:09;1.00;;;0.90;;
11646;SDS011;5880;52.342;9.662;2023-06-04T12:11:26;2.42;;;1.00;;
11646;SDS011;5880;52.342;9.662;2023-06-04T12:13:56;1.30;;;0.90;;
11646;SDS011;5880;52.342;9.662;2023-06-04T12:16:30;1.40;;;1.30;;
11646;SDS011;5880;52.342;9.662;2023-06-04T12:19:09;1.15;;;1.00;;
11646;SDS011;5880;52.342;9.662;2023-06-04T12:21:37;1.70;;;1.00;;
11646;SDS011;5880;52.342;9.662;2023-06-04T12:24:13;1.13;;;1.00;;
11646;SDS011;5880;52.342;9.662;2023-06-04T12:26:40;4.43;;;0.82;;
11646;SDS011;5880;52.342;9.662;2023-06-04T12:29:12;1.33;;;0.98;;
11646;SDS011;5880;52.342;9.662;2023-06-04T12:31:40;0.93;;;0.82;;
11646;SDS011;5880;52.342;9.662;2023-06-04T12:34:07;0.90;;;0.90;;
11646;SDS011;5880;52.342;9.662;2023-06-04T12:36:33;1.70;;;1.23;;
11646;SDS011;5880;52.342;9.662;2023-06-04T12:39:00;1.10;;;0.90;;
11646;SDS011;5880;52.342;9.662;2023-06-04T12:41:27;2.03;;;1.02;;
11646;SDS011;5880;52.342;9.662;2023-06-04T12:43:54;2.53;;;1.40;;
11646;SDS011;5880;52.342;9.662;2023-06-04T12:46:21;1.15;;;1.05;;
11646;SDS011;5880;52.342;9.662;2023-06-04T12:48:49;11.60;;;8.93;;
11646;SDS011;5880;52.342;9.662;2023-06-04T12:51:16;5.60;;;4.97;;
11646;SDS011;5880;52.342;9.662;2023-06-04T12:53:42;21.10;;;19.25;;
11646;SDS011;5880;52.342;9.662;2023-06-04T12:56:09;26.85;;;24.42;;
11646;SDS011;5880;52.342;9.662;2023-06-04T12:58:35;11.95;;;10.90;;
11646;SDS011;5880;52.342;9.662;2023-06-04T13:01:02;6.32;;;5.78;;
11646;SDS011;5880;52.342;9.662;2023-06-04T13:03:29;3.33;;;3.03;;
11646;SDS011;5880;52.342;9.662;2023-06-04T13:05:56;2.33;;;1.90;;
11646;SDS011;5880;52.342;9.662;2023-06-04T13:08:22;1.42;;;1.33;;
11646;SDS011;5880;52.342;9.662;2023-06-04T13:10:49;1.17;;;0.98;;
11646;SDS011;5880;52.342;9.662;2023-06-04T13:13:17;1.15;;;1.15;;
11646;SDS011;5880;52.342;9.662;2023-06-04T13:15:44;0.93;;;0.93;;
11646;SDS011;5880;52.342;9.662;2023-06-04T13:18:10;1.17;;;1.08;;
11646;SDS011;5880;52.342;9.662;2023-06-04T13:20:36;1.33;;;1.15;;
11646;SDS011;5880;52.342;9.662;2023-06-04T13:23:05;1.00;;;0.90;;
11646;SDS011;5880;52.342;9.662;2023-06-04T13:25:31;1.20;;;0.93;;
11646;SDS011;5880;52.342;9.662;2023-06-04T13:27:59;0.93;;;0.93;;
11646;SDS011;5880;52.342;9.662;2023-06-04T13:30:26;1.20;;;1.10;;
11646;SDS011;5880;52.342;9.662;2023-06-04T13:32:52;0.90;;;0.90;;
11646;SDS011;5880;52.342;9.662;2023-06-04T13:35:18;1.20;;;1.10;;
11646;SDS011;5880;52.342;9.662;2023-06-04T13:37:44;1.52;;;0.98;;
11646;SDS011;5880;52.342;9.662;2023-06-04T13:40:10;0.90;;;0.90;;
11646;SDS011;5880;52.342;9.662;2023-06-04T13:42:36;1.10;;;1.00;;
11646;SDS011;5880;52.342;9.662;2023-06-04T13:45:02;1.20;;;0.85;;
11646;SDS011;5880;52.342;9.662;2023-06-04T13:47:28;1.08;;;0.88;;
11646;SDS011;5880;52.342;9.662;2023-06-04T13:49:54;2.47;;;0.85;;
11646;SDS011;5880;52.342;9.662;2023-06-04T13:52:19;0.93;;;0.90;;
11646;SDS011;5880;52.342;9.662;2023-06-04T13:54:45;1.10;;;1.00;;
11646;SDS011;5880;52.342;9.662;2023-06-04T13:57:11;1.02;;;1.00;;
11646;SDS011;5880;52.342;9.662;2023-06-04T13:59:37;1.13;;;1.02;;
11646;SDS011;5880;52.342;9.662;2023-06-04T14:02:03;1.88;;;1.20;;
11646;SDS011;5880;52.342;9.662;2023-06-04T14:04:29;1.23;;;1.13;;
11646;SDS011;5880;52.342;9.662;2023-06-04T14:06:55;1.25;;;1.15;;
11646;SDS011;5880;52.342;9.662;2023-06-04T14:09:22;0.95;;;0.95;;
11646;SDS011;5880;52.342;9.662;2023-06-04T14:11:47;1.17;;;1.08;;
11646;SDS011;5880;52.342;9.662;2023-06-04T14:14:15;2.45;;;1.20;;
11646;SDS011;5880;52.342;9.662;2023-06-04T14:16:42;1.10;;;1.00;;
11646;SDS011;5880;52.342;9.662;2023-06-04T14:19:12;1.00;;;0.90;;
11646;SDS011;5880;52.342;9.662;2023-06-04T14:21:38;1.05;;;1.02;;
11646;SDS011;5880;52.342;9.662;2023-06-04T14:24:05;1.30;;;1.20;;
11646;SDS011;5880;52.342;9.662;2023-06-04T14:26:31;1.33;;;1.23;;
11646;SDS011;5880;52.342;9.662;2023-06-04T14:28:58;1.30;;;1.15;;
11646;SDS011;5880;52.342;9.662;2023-06-04T14:31:24;1.27;;;1.10;;
11646;SDS011;5880;52.342;9.662;2023-06-04T14:33:50;1.38;;;1.27;;
11646;SDS011;5880;52.342;9.662;2023-06-04T14:36:15;1.58;;;1.30;;
11646;SDS011;5880;52.342;9.662;2023-06-04T14:38:41;1.42;;;1.33;;
11646;SDS011;5880;52.342;9.662;2023-06-04T14:41:06;1.30;;;1.20;;
11646;SDS011;5880;52.342;9.662;2023-06-04T14:43:32;1.25;;;1.15;;
11646;SDS011;5880;52.342;9.662;2023-06-04T14:45:58;2.13;;;1.10;;
11646;SDS011;5880;52.342;9.662;2023-06-04T14:48:24;1.33;;;1.23;;
11646;SDS011;5880;52.342;9.662;2023-06-04T14:50:49;1.45;;;1.35;;
11646;SDS011;5880;52.342;9.662;2023-06-04T14:53:18;1.20;;;1.10;;
11646;SDS011;5880;52.342;9.662;2023-06-04T14:55:44;1.13;;;1.10;;
11646;SDS011;5880;52.342;9.662;2023-06-04T14:58:11;1.20;;;1.10;;
11646;SDS011;5880;52.342;9.662;2023-06-04T15:00:37;1.20;;;1.10;;
11646;SDS011;5880;52.342;9.662;2023-06-04T15:03:02;1.73;;;1.08;;
11646;SDS011;5880;52.342;9.662;2023-06-04T15:05:29;1.67;;;1.13;;
11646;SDS011;5880;52.342;9.662;2023-06-04T15:07:56;1.80;;;1.20;;
11646;SDS011;5880;52.342;9.662;2023-06-04T15:10:21;2.22;;;1.38;;
11646;SDS011;5880;52.342;9.662;2023-06-04T15:12:47;1.27;;;1.17;;
11646;SDS011;5880;52.342;9.662;2023-06-04T15:15:12;1.30;;;1.20;;
11646;SDS011;5880;52.342;9.662;2023-06-04T15:17:38;1.10;;;1.00;;